Time;durP1;ratioP1;P1;durP2;ratioP2;P2;SDS_P1;SDS_P2;PMS_P1;PMS_P2;Temp;Humidity;BMP_temperature;BMP_pressure;BME280_temperature;BME280_humidity;BME280_pressure;Samples;Min_cycle;Max_cycle;Signal;HPM_P1;HPM_P2
2023/03/04 07:11:48;;;;;;;1.35;1.25;;;;;;;1.67;69.58;99648.72;5132795;27;20379;-64
2023/03/04 07:14:19;;;;;;;7.30;5.45;;;;;;;1.91;69.07;99639.47;5131953;28;20043;-64
2023/03/04 07:16:50;;;;;;;4.18;3.80;;;;;;;1.97;69.11;99639.66;5131957;27;20100;-63
2023/03/04 07:19:19;;;;;;;6.07;3.13;;;;;;;2.09;68.04;99644.25;5131773;28;20039;-64
2023/03/04 07:21:48;;;;;;;7.25;4.53;;;;;;;2.30;68.11;99638.22;5131787;27;20039;-64
2023/03/04 07:24:17;;;;;;;2.63;2.00;;;;;;;2.52;67.44;99642.25;5131626;27;20481;-64
2023/03/04 07:26:46;;;;;;;6.47;4.13;;;;;;;2.74;66.44;99639.56;5131688;28;20512;-64
2023/03/04 07:29:16;;;;;;;6.88;2.17;;;;;;;2.83;65.88;99644.03;5131860;28;20062;-64
2023/03/04 07:31:45;;;;;;;2.95;1.65;;;;;;;2.89;66.50;99649.22;5131549;28;20511;-64
2023/03/04 07:34:15;;;;;;;1.38;1.27;;;;;;;2.77;65.86;99643.81;5131522;28;20059;-64
2023/03/04 07:36:45;;;;;;;1.98;1.38;;;;;;;2.70;65.66;99642.78;5131427;27;20036;-64
2023/03/04 07:39:13;;;;;;;0.52;0.52;;;;;;;2.78;65.11;99640.50;5131373;28;20063;-64
2023/03/04 07:41:42;;;;;;;1.88;1.60;;;;;;;2.90;65.18;99648.44;5131605;28;20051;-64
2023/03/04 07:44:13;;;;;;;2.35;2.17;;;;;;;3.00;65.22;99645.38;5131334;28;20059;-64
2023/03/04 07:46:43;;;;;;;1.92;1.83;;;;;;;3.19;64.28;99635.81;5131298;27;20096;-64
2023/03/04 07:49:13;;;;;;;1.95;1.85;;;;;;;3.42;64.40;99638.97;5131255;27;20059;-64
2023/03/04 07:51:41;;;;;;;2.72;2.30;;;;;;;3.53;63.65;99626.66;5131186;27;20035;-64
2023/03/04 07:54:10;;;;;;;5.32;1.77;;;;;;;3.58;63.84;99625.94;5131409;28;20036;-64
2023/03/04 07:56:39;;;;;;;3.72;3.42;;;;;;;3.59;63.23;99622.63;5131139;27;20100;-64
2023/03/04 07:59:08;;;;;;;1.67;1.40;;;;;;;3.65;63.59;99620.22;5131005;28;20044;-64
2023/03/04 08:01:38;;;;;;;3.90;3.30;;;;;;;3.73;63.68;99611.19;5130993;28;20379;-64
2023/03/04 08:04:08;;;;;;;;;;;;;;;3.89;63.08;99608.22;5131657;27;20071;-64
2023/03/04 08:06:37;;;;;;;3.00;2.13;;;;;;;4.08;62.21;99612.91;5131173;28;19923;-64
2023/03/04 08:09:07;;;;;;;3.13;1.90;;;;;;;4.20;61.72;99604.75;5131205;28;20043;-64
2023/03/04 08:11:38;;;;;;;5.63;2.25;;;;;;;4.18;61.65;99600.47;5130419;27;20055;-64
2023/03/04 08:14:08;;;;;;;2.83;2.15;;;;;;;4.12;61.86;99600.34;5130808;27;20055;-64
2023/03/04 08:16:37;;;;;;;0.93;0.70;;;;;;;4.31;61.65;99597.44;5130668;28;20050;-64
2023/03/04 08:19:08;;;;;;;4.18;3.75;;;;;;;4.25;61.17;99597.31;5130757;27;20051;-64
2023/03/04 08:21:37;;;;;;;1.45;1.35;;;;;;;4.40;61.67;99597.63;5125308;28;20051;-64
2023/03/04 08:24:08;;;;;;;1.30;1.13;;;;;;;4.63;61.00;99591.44;5117237;28;20039;-64
2023/03/04 08:26:40;;;;;;;2.42;2.22;;;;;;;4.85;60.88;99593.56;5117211;28;20155;-64
2023/03/04 08:29:11;;;;;;;3.85;1.80;;;;;;;4.96;61.11;99592.13;5116728;28;20062;-64
2023/03/04 08:31:40;;;;;;;0.73;0.73;;;;;;;4.99;61.00;99587.09;5116870;28;20078;-64
2023/03/04 08:34:11;;;;;;;4.78;2.13;;;;;;;5.00;60.99;99587.94;5116671;28;20051;-64
2023/03/04 08:36:42;;;;;;;6.63;2.65;;;;;;;5.05;60.94;99589.75;5116685;28;20048;-64
2023/03/04 08:39:13;;;;;;;2.30;1.63;;;;;;;5.16;60.53;99577.34;5116547;28;20047;-65
2023/03/04 08:41:42;;;;;;;4.70;2.47;;;;;;;5.23;60.48;99579.97;5116915;28;20044;-65
2023/03/04 08:44:11;;;;;;;3.53;2.00;;;;;;;5.34;60.32;99573.47;5116321;28;20043;-65
2023/03/04 08:46:42;;;;;;;0.75;0.75;;;;;;;5.38;60.12;99572.69;5116317;28;20058;-65
2023/03/04 08:49:13;;;;;;;3.05;1.65;;;;;;;5.59;60.32;99568.84;5116468;28;20039;-65
2023/03/04 08:51:44;;;;;;;2.20;2.08;;;;;;;5.51;59.63;99562.78;5116842;28;20039;-65
2023/03/04 08:54:13;;;;;;;1.85;1.48;;;;;;;5.64;59.29;99560.47;5116689;28;20120;-65
2023/03/04 08:56:41;;;;;;;1.73;1.63;;;;;;;5.54;59.75;99565.38;5116265;28;20122;-64
2023/03/04 08:59:11;;;;;;;3.80;3.47;;;;;;;5.69;59.99;99560.53;5116267;28;20051;-64
2023/03/04 09:01:40;;;;;;;4.97;3.55;;;;;;;5.90;59.15;99558.41;5116093;28;20044;-64
2023/03/04 09:04:09;;;;;;;1.35;1.27;;;;;;;5.93;59.51;99556.75;5116095;28;20078;-65
2023/03/04 09:06:39;;;;;;;14.25;3.13;;;;;;;6.02;59.09;99548.47;5116012;28;20168;-65
2023/03/04 09:09:08;;;;;;;1.98;1.67;;;;;;;6.23;58.95;99553.00;5115939;28;20532;-65
2023/03/04 09:11:37;;;;;;;1.83;1.73;;;;;;;6.33;58.58;99549.75;5115726;28;20075;-65
2023/03/04 09:14:05;;;;;;;3.47;2.13;;;;;;;6.39;58.57;99545.63;5116227;28;20060;-65
2023/03/04 09:16:34;;;;;;;2.90;2.70;;;;;;;6.37;57.96;99544.75;5115902;28;20039;-64
2023/03/04 09:19:03;;;;;;;3.70;3.13;;;;;;;6.41;58.31;99538.88;5116123;28;20063;-65
2023/03/04 09:21:32;;;;;;;2.35;2.15;;;;;;;6.48;57.66;99538.13;5116052;28;20039;-65
2023/03/04 09:24:02;;;;;;;1.67;1.17;;;;;;;6.56;57.11;99539.09;5115642;28;20074;-65
2023/03/04 09:26:31;;;;;;;1.55;1.25;;;;;;;6.58;57.16;99547.56;5115646;28;20048;-64
2023/03/04 09:29:02;;;;;;;1.88;1.77;;;;;;;6.74;57.18;99544.38;5115972;28;20081;-65
2023/03/04 09:31:31;;;;;;;1.88;1.73;;;;;;;6.82;57.12;99539.41;5115763;28;20032;-64
2023/03/04 09:34:00;;;;;;;1.70;1.60;;;;;;;6.69;56.88;99535.03;5114830;28;20088;-65
2023/03/04 09:36:29;;;;;;;1.67;1.58;;;;;;;6.86;57.09;99532.69;5116047;28;20105;-65
2023/03/04 09:39:01;;;;;;;2.85;2.65;;;;;;;7.10;57.42;99528.72;5115726;28;20043;-65
2023/03/04 09:41:38;;;;;;;0.68;0.68;;;;;;;7.30;56.27;99521.31;5115612;28;20040;-65
2023/03/04 09:44:15;;;;;;;3.63;3.28;;;;;;;7.48;56.55;99521.50;5115361;28;20048;-65
2023/03/04 09:46:46;;;;;;;2.25;2.10;;;;;;;7.79;56.12;99518.38;5115343;28;20067;-65
2023/03/04 09:49:16;;;;;;;1.30;1.20;;;;;;;7.77;55.68;99515.00;5115267;28;20123;-65
2023/03/04 09:51:55;;;;;;;4.05;1.20;;;;;;;7.87;54.74;99506.56;5115385;28;20039;-64
2023/03/04 09:54:53;;;;;;;3.30;1.92;;;;;;;7.90;54.82;99506.59;5115161;28;20048;-65
2023/03/04 09:57:30;;;;;;;1.67;1.58;;;;;;;8.13;54.25;99503.38;5115204;28;20481;-65
2023/03/04 10:00:11;;;;;;;2.42;2.22;;;;;;;8.30;53.39;99496.72;5115078;28;20048;-64
2023/03/04 10:02:57;;;;;;;3.35;1.75;;;;;;;8.62;53.53;99485.84;5115307;28;20040;-64
2023/03/04 10:05:29;;;;;;;2.72;2.10;;;;;;;8.83;52.77;99479.97;5114997;28;20130;-65
2023/03/04 10:08:05;;;;;;;1.45;1.35;;;;;;;8.86;52.77;99477.44;5114837;28;20074;-65
2023/03/04 10:10:42;;;;;;;3.80;1.60;;;;;;;8.90;51.18;99471.50;5114591;28;20056;-64
2023/03/04 10:13:16;;;;;;;6.35;1.95;;;;;;;8.98;51.73;99469.84;5114776;28;20047;-65
2023/03/04 10:15:49;;;;;;;2.53;1.88;;;;;;;8.89;51.08;99462.19;5114795;28;20043;-64
2023/03/04 10:18:22;;;;;;;1.13;1.08;;;;;;;9.16;51.39;99469.88;5115037;28;20069;-64
2023/03/04 10:20:57;;;;;;;0.73;0.70;;;;;;;9.66;50.32;99474.13;5114594;28;20043;-64
2023/03/04 10:23:28;;;;;;;1.50;0.70;;;;;;;9.82;48.74;99465.63;5114558;28;20047;-64
2023/03/04 10:26:01;;;;;;;1.25;1.15;;;;;;;10.11;49.17;99456.22;5114599;28;20048;-64
2023/03/04 10:28:31;;;;;;;1.40;1.30;;;;;;;10.14;47.28;99455.41;5114467;28;20058;-64
2023/03/04 10:31:02;;;;;;;;;;;;;;;10.38;47.21;99450.22;5115206;28;20602;-64
2023/03/04 10:33:33;;;;;;;0.75;0.75;;;;;;;10.42;46.14;99446.78;5114433;28;19925;-64
2023/03/04 10:36:05;;;;;;;2.33;1.58;;;;;;;10.41;45.51;99430.66;5114433;28;20057;-64
2023/03/04 10:38:37;;;;;;;1.40;0.82;;;;;;;10.58;45.00;99439.06;5114605;28;20492;-64
2023/03/04 10:41:15;;;;;;;1.80;1.63;;;;;;;10.71;44.84;99430.50;5114350;28;20050;-64
2023/03/04 10:43:50;;;;;;;0.60;0.60;;;;;;;10.91;44.72;99429.53;5114365;28;20050;-65
2023/03/04 10:46:21;;;;;;;2.33;1.60;;;;;;;11.05;44.71;99425.19;5114288;28;20039;-65
2023/03/04 10:48:54;;;;;;;1.95;1.55;;;;;;;11.08;44.06;99420.06;5114542;28;20553;-65
2023/03/04 10:51:25;;;;;;;1.20;1.08;;;;;;;11.05;43.91;99420.09;5114586;28;20040;-64
2023/03/04 10:53:58;;;;;;;1.70;1.45;;;;;;;10.94;44.00;99421.88;5114493;28;20553;-64
2023/03/04 10:56:35;;;;;;;1.65;1.33;;;;;;;10.62;43.58;99394.84;5114325;28;20146;-64
2023/03/04 10:59:25;;;;;;;2.50;1.65;;;;;;;10.61;43.03;99418.66;5114308;28;20048;-64
2023/03/04 11:01:55;;;;;;;2.47;1.25;;;;;;;10.83;43.31;99408.31;5114282;28;20040;-64
2023/03/04 11:04:25;;;;;;;4.28;1.80;;;;;;;11.02;43.44;99405.63;5114228;28;20039;-65
2023/03/04 11:06:54;;;;;;;0.65;0.65;;;;;;;11.23;43.08;99400.34;5114145;28;20120;-64
2023/03/04 11:09:25;;;;;;;1.47;1.37;;;;;;;11.30;42.73;99402.00;5113921;28;20036;-64
2023/03/04 11:11:58;;;;;;;2.20;1.45;;;;;;;11.31;42.56;99397.75;5113799;28;20056;-64
2023/03/04 11:14:31;;;;;;;1.70;1.40;;;;;;;11.53;42.28;99408.63;5114235;28;20055;-64
2023/03/04 11:17:02;;;;;;;2.08;1.13;;;;;;;11.30;42.18;99406.28;5113796;28;20138;-64
2023/03/04 11:19:38;;;;;;;1.23;1.13;;;;;;;11.32;41.55;99381.56;5113899;28;20036;-64
2023/03/04 11:22:07;;;;;;;1.58;1.08;;;;;;;11.48;41.68;99390.78;5113772;28;20485;-65
2023/03/04 11:24:37;;;;;;;0.80;0.80;;;;;;;11.47;41.76;99394.19;5113821;28;20040;-64
2023/03/04 11:27:17;;;;;;;1.35;1.25;;;;;;;11.71;42.50;99391.44;5113832;28;20082;-65
2023/03/04 11:29:52;;;;;;;0.70;0.70;;;;;;;11.54;41.68;99398.38;5113264;28;20048;-64
2023/03/04 11:32:24;;;;;;;2.10;1.90;;;;;;;11.38;41.36;99389.16;5113849;28;20048;-64
2023/03/04 11:34:58;;;;;;;1.58;1.38;;;;;;;11.50;41.59;99389.06;5113617;28;20130;-64
2023/03/04 11:37:34;;;;;;;4.75;1.75;;;;;;;11.47;41.42;99372.91;5113672;28;20052;-64
2023/03/04 11:40:11;;;;;;;2.53;1.33;;;;;;;11.61;40.78;99381.31;5113997;28;20043;-64
2023/03/04 11:42:48;;;;;;;1.70;1.45;;;;;;;11.78;40.74;99390.50;5112690;28;20093;-64
2023/03/04 11:45:22;;;;;;;0.82;0.82;;;;;;;11.85;40.85;99387.03;5113691;28;20067;-64
2023/03/04 11:48:09;;;;;;;6.07;2.55;;;;;;;11.80;40.54;99373.47;5113598;28;20070;-64
2023/03/04 11:50:44;;;;;;;;;;;;;;;11.72;40.75;99374.38;5114097;28;20117;-64
2023/03/04 11:53:37;;;;;;;1.55;1.45;;;;;;;11.55;40.84;99371.13;5113554;28;19924;-64
2023/03/04 11:56:27;;;;;;;2.28;1.17;;;;;;;11.72;41.02;99362.47;5113524;28;20556;-64
2023/03/04 11:59:31;;;;;;;1.30;1.20;;;;;;;11.85;40.86;99364.00;5117494;28;20050;-64
2023/03/04 12:02:12;;;;;;;4.53;2.42;;;;;;;11.55;41.09;99361.75;5117340;28;20055;-64
2023/03/04 12:05:06;;;;;;;2.92;1.45;;;;;;;11.67;41.28;99360.78;5117498;28;20047;-63
2023/03/04 12:07:52;;;;;;;2.78;1.88;;;;;;;11.32;41.63;99368.78;5117287;28;20047;-64
2023/03/04 12:10:29;;;;;;;2.17;1.48;;;;;;;11.27;41.81;99345.00;5117161;28;20060;-64
2023/03/04 12:13:16;;;;;;;2.00;1.50;;;;;;;11.64;42.31;99364.22;5117115;28;20044;-64
2023/03/04 12:15:55;;;;;;;3.05;1.90;;;;;;;11.78;42.78;99364.94;5117062;28;20118;-64
2023/03/04 12:18:45;;;;;;;5.35;2.63;;;;;;;11.94;42.71;99363.94;5117011;28;20048;-64
2023/03/04 12:21:28;;;;;;;1.27;1.17;;;;;;;12.08;42.91;99364.59;5116958;28;20054;-64
2023/03/04 12:24:20;;;;;;;2.25;1.55;;;;;;;12.31;43.14;99360.94;5116915;28;20040;-64
2023/03/04 12:26:54;;;;;;;3.83;2.53;;;;;;;12.29;42.88;99357.50;5116900;28;20130;-64
2023/03/04 12:29:32;;;;;;;4.78;2.47;;;;;;;12.40;43.35;99366.78;5117064;28;20051;-63
2023/03/04 12:32:13;;;;;;;1.67;1.45;;;;;;;12.33;43.23;99364.31;5116755;28;20043;-64
2023/03/04 12:35:06;;;;;;;9.43;2.25;;;;;;;12.07;43.23;99357.78;5116621;28;20043;-64
2023/03/04 12:37:55;;;;;;;3.95;2.22;;;;;;;12.10;43.56;99360.31;5117029;28;20052;-64
2023/03/04 12:40:38;;;;;;;2.05;1.88;;;;;;;12.01;43.30;99368.09;5114709;28;20039;-64
2023/03/04 12:43:35;;;;;;;1.48;1.38;;;;;;;12.07;43.48;99368.03;5116752;28;20063;-64
2023/03/04 12:46:17;;;;;;;2.47;1.67;;;;;;;12.01;43.47;99368.09;5115348;28;20117;-64
2023/03/04 12:48:59;;;;;;;2.58;2.22;;;;;;;11.94;43.31;99369.03;5116448;28;20059;-64
2023/03/04 12:51:36;;;;;;;2.38;2.17;;;;;;;12.07;43.61;99382.50;5116406;28;20101;-64
2023/03/04 12:54:20;;;;;;;5.97;3.53;;;;;;;12.00;43.39;99373.22;5116502;28;20050;-64
2023/03/04 12:56:54;;;;;;;4.40;2.03;;;;;;;11.79;43.37;99366.66;5116295;28;20100;-64
2023/03/04 12:59:26;;;;;;;2.40;1.73;;;;;;;11.82;43.38;99381.97;5116275;28;20131;-64
2023/03/04 13:02:04;;;;;;;2.13;1.85;;;;;;;11.65;42.80;99368.47;5116170;28;20051;-64
2023/03/04 13:04:49;;;;;;;1.63;1.02;;;;;;;11.67;43.28;99379.53;5116018;28;20124;-64
2023/03/04 13:07:23;;;;;;;5.38;2.85;;;;;;;11.47;43.51;99378.03;5116326;28;20501;-64
2023/03/04 13:09:59;;;;;;;3.42;2.55;;;;;;;11.34;43.25;99378.13;5115757;28;20044;-64
2023/03/04 13:12:28;;;;;;;2.65;2.13;;;;;;;11.30;43.43;99380.75;5116286;28;20138;-64
2023/03/04 13:15:18;;;;;;;5.30;1.95;;;;;;;11.33;43.43;99376.44;5116285;28;20109;-64
2023/03/04 13:17:49;;;;;;;1.80;1.70;;;;;;;11.27;42.95;99375.66;5116161;28;20118;-64
2023/03/04 13:20:25;;;;;;;;;;;;;;;11.24;43.55;99380.78;5116249;28;20135;-64
2023/03/04 13:22:56;;;;;;;2.50;2.30;;;;;;;11.29;43.19;99379.03;5116074;28;19965;-64
2023/03/04 13:25:48;;;;;;;2.90;2.22;;;;;;;11.38;43.09;99381.50;5115677;28;20092;-64
2023/03/04 13:28:26;;;;;;;5.35;2.65;;;;;;;11.45;43.03;99376.31;5111129;28;20096;-64
2023/03/04 13:31:07;;;;;;;2.88;2.10;;;;;;;11.49;42.41;99374.59;5115654;28;20097;-64
2023/03/04 13:33:58;;;;;;;2.20;1.98;;;;;;;11.43;42.94;99379.75;5115645;28;20043;-64
2023/03/04 13:36:56;;;;;;;2.13;1.55;;;;;;;11.41;43.45;99381.47;5115479;28;20040;-64
2023/03/04 13:39:31;;;;;;;3.33;1.23;;;;;;;11.59;43.24;99383.84;5115422;28;20130;-64
2023/03/04 13:42:01;;;;;;;1.88;1.40;;;;;;;11.67;43.11;99381.22;5115748;28;20507;-64
2023/03/04 13:44:56;;;;;;;;;;;;;;;11.29;42.32;99379.03;5115697;28;20122;-64
2023/03/04 13:47:33;;;;;;;2.03;1.85;;;;;;;11.18;42.91;99396.16;5115906;28;19926;-64
2023/03/04 13:50:24;;;;;;;4.13;1.90;;;;;;;10.96;42.33;99384.41;5115536;28;20044;-64
2023/03/04 13:52:54;;;;;;;4.82;2.67;;;;;;;10.92;42.23;99382.75;5115483;28;20503;-64
2023/03/04 13:55:36;;;;;;;1.42;1.33;;;;;;;11.06;42.52;99386.84;5115567;28;20116;-64
2023/03/04 13:58:21;;;;;;;1.38;1.27;;;;;;;11.06;43.21;99376.66;5115056;28;20139;-64
2023/03/04 14:00:53;;;;;;;1.50;1.40;;;;;;;11.04;42.42;99377.50;5115390;28;20127;-64
2023/03/04 14:03:26;;;;;;;1.67;1.50;;;;;;;11.00;42.98;99380.97;5115010;28;20493;-64
2023/03/04 14:06:16;;;;;;;3.70;0.70;;;;;;;10.91;43.47;99381.03;5115012;28;20055;-64
2023/03/04 14:08:48;;;;;;;2.50;2.00;;;;;;;10.64;42.68;99380.34;5114992;28;20044;-64
2023/03/04 14:11:30;;;;;;;3.45;1.88;;;;;;;10.61;43.09;99377.81;5114564;28;20055;-64
2023/03/04 14:14:04;;;;;;;3.38;2.75;;;;;;;10.64;43.90;99382.91;5114910;28;20154;-64
2023/03/04 14:16:38;;;;;;;11.52;3.63;;;;;;;10.69;43.42;99381.19;5115034;28;20562;-65
2023/03/04 14:19:14;;;;;;;3.42;3.13;;;;;;;10.66;43.63;99381.19;5113020;28;20436;-64
2023/03/04 14:21:47;;;;;;;2.28;1.58;;;;;;;10.45;43.92;99378.75;5114745;28;20075;-64
2023/03/04 14:24:20;;;;;;;2.35;1.77;;;;;;;10.45;44.06;99371.09;5114809;28;20138;-64
2023/03/04 14:26:49;;;;;;;3.65;2.00;;;;;;;10.33;44.29;99371.16;5115203;28;20047;-64
2023/03/04 14:29:24;;;;;;;6.15;2.15;;;;;;;10.13;44.36;99367.84;5114491;28;20040;-64
2023/03/04 14:31:54;;;;;;;3.53;1.30;;;;;;;10.05;43.74;99374.66;5114546;28;20069;-64
2023/03/04 14:34:27;;;;;;;2.17;1.98;;;;;;;9.87;43.78;99374.72;5114767;28;20047;-64
2023/03/04 14:36:55;;;;;;;2.60;1.95;;;;;;;9.71;44.52;99371.38;5114380;28;20509;-64
2023/03/04 14:39:28;;;;;;;2.05;1.75;;;;;;;9.82;44.53;99371.31;5114679;28;20452;-64
2023/03/04 14:42:04;;;;;;;1.83;1.52;;;;;;;9.80;45.04;99365.38;5114649;28;20044;-64
2023/03/04 14:44:37;;;;;;;2.75;1.92;;;;;;;9.83;45.26;99363.69;5114552;28;20390;-64
2023/03/04 14:47:13;;;;;;;4.53;2.92;;;;;;;9.79;45.26;99368.81;5114230;28;20127;-64
2023/03/04 14:49:42;;;;;;;2.10;1.55;;;;;;;9.78;45.35;99370.50;5114524;28;20051;-64
2023/03/04 14:52:33;;;;;;;3.23;2.53;;;;;;;9.55;45.21;99376.50;5114518;28;20067;-64
2023/03/04 14:55:21;;;;;;;2.75;2.55;;;;;;;9.35;45.58;99362.09;5114286;28;20078;-64
2023/03/04 14:57:57;;;;;;;0.98;0.98;;;;;;;9.32;45.92;99368.88;5114150;28;20047;-64
2023/03/04 15:00:30;;;;;;;1.90;1.55;;;;;;;9.16;46.35;99373.13;5114392;28;20051;-64
2023/03/04 15:03:02;;;;;;;1.92;1.67;;;;;;;8.95;46.37;99375.66;5114370;28;20071;-64
2023/03/04 15:05:33;;;;;;;1.55;1.35;;;;;;;8.90;46.07;99372.25;5113985;28;20039;-64
2023/03/04 15:08:05;;;;;;;2.78;1.90;;;;;;;8.82;46.66;99373.97;5114069;28;20055;-64
2023/03/04 15:10:38;;;;;;;1.38;1.27;;;;;;;8.61;47.44;99362.03;5113706;28;20056;-65
2023/03/04 15:13:10;;;;;;;1.45;1.35;;;;;;;8.31;48.15;99368.75;5114021;28;20044;-64
2023/03/04 15:15:44;;;;;;;2.05;1.73;;;;;;;7.86;49.14;99362.63;5113913;28;20054;-64
2023/03/04 15:18:21;;;;;;;3.78;1.48;;;;;;;7.63;49.03;99363.34;5113927;28;20055;-64
2023/03/04 15:20:55;;;;;;;2.33;1.45;;;;;;;7.38;49.98;99365.72;5114069;28;20130;-65
2023/03/04 15:23:24;;;;;;;1.38;1.33;;;;;;;7.07;50.94;99360.41;5114322;28;20082;-64
2023/03/04 15:25:58;;;;;;;1.40;1.30;;;;;;;7.08;51.52;99357.03;5113788;28;20075;-64
2023/03/04 15:28:35;;;;;;;2.40;2.22;;;;;;;6.96;51.79;99364.56;5113832;28;20075;-65
2023/03/04 15:31:04;;;;;;;1.30;1.20;;;;;;;6.93;52.17;99364.50;5114168;28;20401;-65
2023/03/04 15:33:34;;;;;;;2.25;2.05;;;;;;;6.88;51.95;99368.69;5117900;28;20553;-65
2023/03/04 15:36:04;;;;;;;2.03;1.80;;;;;;;6.82;51.69;99359.34;5118180;28;20396;-65
2023/03/04 15:38:33;;;;;;;2.15;1.10;;;;;;;6.51;52.44;99363.28;5118237;28;20488;-65
2023/03/04 15:41:03;;;;;;;0.40;0.40;;;;;;;6.50;52.82;99355.66;5117763;28;20501;-64
2023/03/04 15:43:32;;;;;;;4.25;1.60;;;;;;;6.45;53.20;99360.69;5118122;28;20070;-65
2023/03/04 15:46:01;;;;;;;1.10;1.00;;;;;;;6.51;53.48;99364.94;5117635;28;20035;-65
2023/03/04 15:48:29;;;;;;;1.80;1.70;;;;;;;6.40;53.77;99364.00;5117682;28;20042;-65
2023/03/04 15:51:01;;;;;;;0.70;0.50;;;;;;;6.34;54.05;99356.31;5117926;28;20038;-65
2023/03/04 15:53:34;;;;;;;1.80;1.55;;;;;;;6.25;53.82;99354.53;5117477;28;20560;-65
2023/03/04 15:56:08;;;;;;;0.80;0.80;;;;;;;6.19;54.22;99368.84;5117592;28;20043;-65
2023/03/04 15:58:38;;;;;;;2.58;2.03;;;;;;;6.28;54.52;99368.94;5117467;28;20138;-65
2023/03/04 16:01:07;;;;;;;8.18;2.70;;;;;;;6.14;54.59;99370.47;5117628;28;20059;-65
2023/03/04 16:03:36;;;;;;;1.27;1.17;;;;;;;6.03;54.74;99373.72;5117358;28;20126;-65
2023/03/04 16:06:09;;;;;;;4.03;3.17;;;;;;;5.93;55.64;99376.09;5117228;28;20075;-65
2023/03/04 16:08:39;;;;;;;2.90;1.65;;;;;;;5.84;55.66;99375.94;5117336;28;20131;-64
2023/03/04 16:11:16;;;;;;;0.63;0.63;;;;;;;5.77;56.08;99381.78;5117038;28;20051;-64
2023/03/04 16:13:45;;;;;;;0.47;0.47;;;;;;;5.75;56.36;99383.44;5117511;28;20139;-64
2023/03/04 16:16:15;;;;;;;0.83;0.80;;;;;;;5.75;56.37;99393.56;5117427;28;20112;-65
2023/03/04 16:18:44;;;;;;;0.60;0.60;;;;;;;5.77;56.23;99394.44;5115847;28;20795;-65
2023/03/04 16:21:17;;;;;;;0.73;0.73;;;;;;;5.78;56.87;99401.19;5117374;28;20054;-64
2023/03/04 16:23:48;;;;;;;1.25;1.10;;;;;;;5.90;56.86;99396.34;5116958;28;20135;-65
2023/03/04 16:26:21;;;;;;;0.90;0.85;;;;;;;5.91;56.78;99392.97;5116832;28;20047;-65
2023/03/04 16:28:50;;;;;;;0.80;0.80;;;;;;;5.90;56.69;99407.28;5116863;28;20040;-65
2023/03/04 16:31:21;;;;;;;1.85;1.17;;;;;;;5.89;57.12;99405.59;5116853;28;20494;-65
2023/03/04 16:33:50;;;;;;;1.30;1.20;;;;;;;5.83;56.92;99400.41;5116936;28;20555;-65
2023/03/04 16:36:22;;;;;;;1.23;1.17;;;;;;;5.78;57.67;99401.19;5117278;28;20112;-65
2023/03/04 16:38:55;;;;;;;0.68;0.68;;;;;;;5.77;57.96;99405.41;5116982;28;20447;-65
2023/03/04 16:41:29;;;;;;;1.50;1.40;;;;;;;5.77;57.94;99404.56;5116891;28;20071;-65
2023/03/04 16:43:59;;;;;;;0.40;0.40;;;;;;;5.81;58.01;99416.41;5116567;28;20119;-65
2023/03/04 16:46:28;;;;;;;0.40;0.40;;;;;;;5.79;58.02;99410.47;5116522;28;20062;-65
2023/03/04 16:48:57;;;;;;;0.47;0.47;;;;;;;5.85;58.02;99418.22;5116815;28;20485;-65
2023/03/04 16:51:26;;;;;;;1.73;1.60;;;;;;;5.84;57.86;99412.28;5115222;28;20039;-65
2023/03/04 16:53:59;;;;;;;0.30;0.30;;;;;;;5.85;58.16;99419.06;5116745;28;20043;-65
2023/03/04 16:56:29;;;;;;;1.33;1.23;;;;;;;5.83;57.91;99424.91;5116211;28;20042;-65
2023/03/04 16:58:59;;;;;;;0.45;0.45;;;;;;;5.80;58.32;99422.31;5116558;28;20052;-65
2023/03/04 17:01:28;;;;;;;0.77;0.77;;;;;;;5.79;58.41;99423.16;5116333;27;20040;-65
2023/03/04 17:03:57;;;;;;;8.85;1.48;;;;;;;5.83;58.21;99420.66;5116825;28;20143;-65
2023/03/04 17:06:27;;;;;;;0.50;0.50;;;;;;;5.85;58.51;99428.34;5116084;28;20078;-65
2023/03/04 17:08:55;;;;;;;0.60;0.60;;;;;;;5.81;58.75;99427.41;5116398;28;20043;-65
2023/03/04 17:11:25;;;;;;;0.70;0.70;;;;;;;5.83;58.68;99440.09;5115741;28;20055;-65
2023/03/04 17:13:55;;;;;;;0.40;0.40;;;;;;;5.76;58.68;99428.19;5116417;28;20046;-65
2023/03/04 17:16:24;;;;;;;0.50;0.50;;;;;;;5.75;58.43;99426.47;5115968;28;20051;-65
2023/03/04 17:18:53;;;;;;;1.23;1.13;;;;;;;5.78;58.58;99436.66;5115980;28;20040;-65
2023/03/04 17:21:24;;;;;;;0.55;0.55;;;;;;;5.76;58.72;99434.06;5115840;28;20036;-65
2023/03/04 17:23:53;;;;;;;1.02;0.98;;;;;;;5.74;58.76;99434.88;5115900;28;20048;-65
2023/03/04 17:26:22;;;;;;;0.68;0.68;;;;;;;5.79;59.14;99440.88;5115607;28;20040;-65
2023/03/04 17:28:51;;;;;;;2.30;2.13;;;;;;;5.82;59.12;99443.44;5115760;28;20044;-64
2023/03/04 17:31:22;;;;;;;0.43;0.43;;;;;;;5.72;59.24;99429.81;5115661;28;20047;-65
2023/03/04 17:33:50;;;;;;;0.98;0.77;;;;;;;5.68;58.74;99439.88;5115658;28;20051;-65
2023/03/04 17:36:20;;;;;;;0.57;0.57;;;;;;;5.66;59.33;99442.41;5115637;28;20047;-65
2023/03/04 17:38:50;;;;;;;1.25;1.15;;;;;;;5.60;59.37;99436.38;5116062;28;20106;-65
2023/03/04 17:41:20;;;;;;;0.40;0.40;;;;;;;5.60;59.53;99433.84;5115490;28;20508;-65
2023/03/04 17:43:53;;;;;;;0.40;0.40;;;;;;;5.58;59.53;99438.03;5115452;27;20068;-65
2023/03/04 17:46:26;;;;;;;0.82;0.82;;;;;;;5.50;59.84;99432.00;5115566;27;20047;-65
2023/03/04 17:48:57;;;;;;;0.65;0.65;;;;;;;5.37;60.05;99439.38;5115336;28;20108;-65
2023/03/04 17:51:35;;;;;;;2.15;1.48;;;;;;;5.25;60.41;99429.09;5114051;28;20068;-65
2023/03/04 17:54:06;;;;;;;1.55;1.38;;;;;;;5.30;60.87;99432.53;5115452;28;20047;-65
2023/03/04 17:56:38;;;;;;;1.70;1.38;;;;;;;5.34;60.59;99431.78;5115419;28;20071;-65
2023/03/04 17:59:11;;;;;;;1.95;1.25;;;;;;;5.35;60.73;99440.22;5115540;28;20080;-65
2023/03/04 18:01:43;;;;;;;0.82;0.55;;;;;;;5.31;60.38;99428.31;5115068;28;20058;-65
2023/03/04 18:04:13;;;;;;;1.13;1.10;;;;;;;5.19;60.98;99434.03;5115089;28;20047;-64
2023/03/04 18:06:42;;;;;;;0.60;0.60;;;;;;;5.15;61.19;99431.44;5114890;28;20067;-64
2023/03/04 18:09:11;;;;;;;0.60;0.60;;;;;;;5.23;60.42;99429.91;5115299;28;20405;-64
2023/03/04 18:11:41;;;;;;;1.43;0.87;;;;;;;5.33;60.59;99437.66;5114691;28;20060;-65
2023/03/04 18:14:11;;;;;;;0.65;0.65;;;;;;;5.30;60.36;99432.53;5115085;28;20042;-65
2023/03/04 18:16:42;;;;;;;0.60;0.60;;;;;;;5.32;60.11;99430.03;5115182;28;20392;-65
2023/03/04 18:19:11;;;;;;;2.15;1.10;;;;;;;5.31;59.92;99424.13;5114787;28;20405;-65
2023/03/04 18:21:39;;;;;;;0.53;0.53;;;;;;;5.27;59.89;99424.91;5114699;28;20039;-65
2023/03/04 18:24:09;;;;;;;1.35;1.25;;;;;;;5.24;59.79;99424.84;5114927;27;20089;-65
2023/03/04 18:26:44;;;;;;;0.70;0.70;;;;;;;5.24;59.43;99422.31;5114582;28;20061;-65
2023/03/04 18:29:13;;;;;;;0.85;0.80;;;;;;;5.27;59.28;99422.38;5114522;28;20036;-65
2023/03/04 18:31:43;;;;;;;0.88;0.88;;;;;;;5.30;59.07;99424.94;5114488;28;20044;-65
2023/03/04 18:34:12;;;;;;;0.75;0.63;;;;;;;5.32;58.93;99423.31;5114518;28;20082;-65
2023/03/04 18:36:40;;;;;;;10.10;2.93;;;;;;;5.35;59.31;99427.56;5114514;28;20035;-65
2023/03/04 18:39:09;;;;;;;2.00;1.43;;;;;;;5.35;58.88;99425.88;5114432;28;20066;-65
2023/03/04 18:41:38;;;;;;;3.28;1.85;;;;;;;5.37;59.30;99428.44;5114301;28;20050;-65
2023/03/04 18:44:08;;;;;;;3.10;2.13;;;;;;;5.43;59.27;99429.38;5114704;28;20035;-65
2023/03/04 18:46:44;;;;;;;1.05;1.02;;;;;;;5.42;59.00;99427.66;5114208;28;20054;-65
2023/03/04 18:49:15;;;;;;;0.68;0.68;;;;;;;5.43;58.83;99424.31;5114364;28;20089;-65
2023/03/04 18:51:44;;;;;;;0.55;0.55;;;;;;;5.49;59.08;99432.84;5114544;28;20039;-65
2023/03/04 18:54:12;;;;;;;2.63;1.52;;;;;;;5.51;58.81;99431.16;5114179;28;20088;-65
2023/03/04 18:56:45;;;;;;;0.45;0.45;;;;;;;5.48;58.62;99436.19;5114110;28;20054;-65
2023/03/04 18:59:18;;;;;;;0.60;0.60;;;;;;;5.46;58.52;99428.56;5114763;28;20401;-65
2023/03/04 19:01:49;;;;;;;0.20;0.20;;;;;;;5.40;59.01;99433.53;5114475;28;20117;-65
2023/03/04 19:04:22;;;;;;;0.30;0.30;;;;;;;5.39;59.27;99424.25;5114401;28;20127;-65
2023/03/04 19:06:51;;;;;;;1.10;1.05;;;;;;;5.40;59.74;99429.31;5114346;28;20134;-65
2023/03/04 19:09:20;;;;;;;4.97;2.78;;;;;;;5.40;59.44;99424.25;5114077;28;20052;-65
2023/03/04 19:11:49;;;;;;;0.35;0.35;;;;;;;5.36;60.06;99432.63;5113839;28;20047;-65
2023/03/04 19:14:17;;;;;;;0.40;0.40;;;;;;;5.35;60.06;99430.94;5114249;28;20504;-65
2023/03/04 19:16:47;;;;;;;1.35;1.25;;;;;;;5.40;60.31;99433.53;5114306;28;20044;-65
2023/03/04 19:19:16;;;;;;;0.45;0.45;;;;;;;5.41;60.18;99436.09;5114089;28;20054;-65